TimeHST,TemperatureF,Dew PointF,Humidity,Sea Level PressureIn,VisibilityMPH,Wind Direction,Wind SpeedMPH,Gust SpeedMPH,PrecipitationIn,Events,Conditions,WindDirDegrees,DateUTC
12:54 AM,64.9,60.1,84,-9999,10.0,SSE,6.9,-,N/A,,Clear,160,2012-02-26 10:54:00
1:54 AM,66.0,60.1,81,-9999,10.0,ESE,5.8,-,N/A,,Clear,120,2012-02-26 11:54:00
2:54 AM,64.0,59.0,84,-9999,10.0,Calm,Calm,-,N/A,,Partly Cloudy,0,2012-02-26 12:54:00
3:54 AM,64.9,59.0,81,-9999,10.0,East,4.6,-,N/A,,Clear,100,2012-02-26 13:54:00
4:54 AM,63.0,57.9,84,-9999,10.0,Calm,Calm,-,N/A,,Clear,0,2012-02-26 14:54:00
5:54 AM,64.9,60.1,84,29.97,10.0,East,8.1,-,N/A,,Partly Cloudy,100,2012-02-26 15:54:00
6:54 AM,69.1,61.0,75,29.99,10.0,Variable,6.9,-,N/A,,Scattered Clouds,0,2012-02-26 16:54:00
7:54 AM,69.1,62.1,78,30.01,10.0,SSW,8.1,-,N/A,,Partly Cloudy,200,2012-02-26 17:54:00
8:54 AM,75.9,63.0,64,30.01,10.0,Variable,6.9,-,N/A,,Scattered Clouds,0,2012-02-26 18:54:00
9:22 AM,75.9,63.0,64,30.01,10.0,Variable,6.9,-,N/A,,Scattered Clouds,0,2012-02-26 19:22:00
9:54 AM,77.0,62.1,60,30.01,10.0,East,6.9,-,N/A,,Scattered Clouds,90,2012-02-26 19:54:00
10:54 AM,78.1,61.0,56,30.03,10.0,ENE,16.1,24.2,N/A,,Scattered Clouds,70,2012-02-26 20:54:00
11:54 AM,82.0,61.0,49,30.01,10.0,ENE,16.1,31.1,N/A,,Scattered Clouds,70,2012-02-26 21:54:00
12:54 PM,82.0,60.1,47,29.98,10.0,ENE,17.3,27.6,N/A,,Scattered Clouds,70,2012-02-26 22:54:00
1:54 PM,82.0,60.1,47,29.97,10.0,ENE,21.9,31.1,N/A,,Partly Cloudy,70,2012-02-26 23:54:00
2:54 PM,80.1,59.0,48,29.96,10.0,East,18.4,28.8,N/A,,Scattered Clouds,80,2012-02-27 00:54:00
3:54 PM,80.1,57.0,45,29.95,10.0,East,16.1,26.5,N/A,,Scattered Clouds,80,2012-02-27 01:54:00
4:54 PM,77.0,57.0,50,29.96,10.0,East,15.0,21.9,N/A,,Scattered Clouds,90,2012-02-27 02:54:00
5:54 PM,75.9,55.0,48,29.96,10.0,East,11.5,19.6,N/A,,Clear,80,2012-02-27 03:54:00
6:54 PM,73.9,55.0,52,29.99,10.0,East,9.2,-,N/A,,Clear,90,2012-02-27 04:54:00
7:54 PM,73.0,55.9,55,30.05,10.0,East,6.9,-,N/A,,Scattered Clouds,100,2012-02-27 05:54:00
8:54 PM,72.0,55.9,57,30.05,10.0,Variable,5.8,-,N/A,,Clear,0,2012-02-27 06:54:00
9:54 PM,71.1,59.0,66,30.06,10.0,East,8.1,-,N/A,,Clear,80,2012-02-27 07:54:00
10:54 PM,69.1,57.0,65,30.08,10.0,Calm,Calm,-,N/A,,Clear,0,2012-02-27 08:54:00
11:54 PM,66.0,57.0,73,-9999,10.0,Calm,Calm,-,N/A,,Partly Cloudy,0,2012-02-27 09:54:00